KLM702 SCEL-SAEZ
Flight info
| Callsign | KLM702 |
|---|---|
| Flight time | 1h 20m |
| Altitude | 39000 |
| Route | ALBAL7C ALBAL UM424 ASADA ASADA7U |
| Aircraft | B772/H-SDE2E3FGHIJ5LORVWXY/LB1D1 |
Departure
| Time | 2026-05-06 14:54 |
|---|---|
| Airport | Comodoro Arturo Merino Benítez International Airport (SCEL) |
Arrival
| Time | 2026-05-06 16:14 |
|---|---|
| Airport | Ezeiza International Airport - Ministro Pistarini (SAEZ) |
| Time | Latitude | Longitude | Altitude | Speed | Heading |
|---|---|---|---|---|---|
| 2026-05-06 14:33 | -33.40390 | -70.79770 | 1571 ft | 0 kts | 0° |
| 2026-05-06 14:41 | -33.40391 | -70.79770 | 1571 ft | 0 kts | 0° |
| 2026-05-06 14:42 | -33.40404 | -70.79771 | 1571 ft | 2 kts | 0° |
| 2026-05-06 14:43 | -33.40418 | -70.79771 | 1571 ft | 0 kts | 0° |
| 2026-05-06 14:43 | -33.40429 | -70.79771 | 1571 ft | 2 kts | 353° |
| 2026-05-06 14:43 | -33.40443 | -70.79766 | 1571 ft | 2 kts | 334° |
| 2026-05-06 14:43 | -33.40456 | -70.79757 | 1571 ft | 2 kts | 319° |
| 2026-05-06 14:44 | -33.40466 | -70.79744 | 1571 ft | 2 kts | 304° |
| 2026-05-06 14:44 | -33.40473 | -70.79728 | 1571 ft | 2 kts | 288° |
| 2026-05-06 14:44 | -33.40476 | -70.79710 | 1571 ft | 2 kts | 272° |
| 2026-05-06 14:45 | -33.40476 | -70.79700 | 1571 ft | 0 kts | 267° |
| 2026-05-06 14:46 | -33.40477 | -70.79707 | 1571 ft | 4 kts | 267° |
| 2026-05-06 14:47 | -33.40478 | -70.79766 | 1571 ft | 8 kts | 269° |
| 2026-05-06 14:47 | -33.40481 | -70.79848 | 1571 ft | 11 kts | 267° |
| 2026-05-06 14:47 | -33.40483 | -70.79952 | 1571 ft | 13 kts | 284° |
| 2026-05-06 14:47 | -33.40402 | -70.79996 | 1571 ft | 15 kts | 357° |
| 2026-05-06 14:48 | -33.40290 | -70.80003 | 1571 ft | 16 kts | 357° |
| 2026-05-06 14:48 | -33.40168 | -70.80010 | 1571 ft | 18 kts | 357° |
| 2026-05-06 14:48 | -33.40035 | -70.80016 | 1571 ft | 19 kts | 358° |
| 2026-05-06 14:48 | -33.39894 | -70.80024 | 1571 ft | 20 kts | 357° |
| 2026-05-06 14:49 | -33.39746 | -70.80033 | 1571 ft | 22 kts | 358° |
| 2026-05-06 14:49 | -33.39588 | -70.80041 | 1571 ft | 23 kts | 358° |
| 2026-05-06 14:49 | -33.39423 | -70.80049 | 1571 ft | 24 kts | 357° |
| 2026-05-06 14:49 | -33.39254 | -70.80058 | 1572 ft | 24 kts | 357° |
| 2026-05-06 14:50 | -33.39077 | -70.80068 | 1572 ft | 25 kts | 358° |
| 2026-05-06 14:50 | -33.38893 | -70.80078 | 1572 ft | 26 kts | 357° |
| 2026-05-06 14:50 | -33.38704 | -70.80088 | 1572 ft | 27 kts | 357° |
| 2026-05-06 14:50 | -33.38509 | -70.80099 | 1572 ft | 28 kts | 358° |
| 2026-05-06 14:51 | -33.38309 | -70.80107 | 1572 ft | 29 kts | 358° |
| 2026-05-06 14:51 | -33.38105 | -70.80121 | 1572 ft | 29 kts | 358° |
| 2026-05-06 14:51 | -33.37894 | -70.80132 | 1572 ft | 30 kts | 357° |
| 2026-05-06 14:51 | -33.37683 | -70.80142 | 1572 ft | 30 kts | 358° |
| 2026-05-06 14:52 | -33.37470 | -70.80154 | 1572 ft | 30 kts | 357° |
| 2026-05-06 14:52 | -33.37252 | -70.80167 | 1572 ft | 29 kts | 358° |
| 2026-05-06 14:52 | -33.37138 | -70.80183 | 1572 ft | 11 kts | 328° |
| 2026-05-06 14:52 | -33.37103 | -70.80274 | 1572 ft | 13 kts | 269° |
| 2026-05-06 14:53 | -33.37153 | -70.80370 | 1572 ft | 15 kts | 200° |
| 2026-05-06 14:53 | -33.37367 | -70.80362 | 1572 ft | 62 kts | 178° |
| 2026-05-06 14:53 | -33.38062 | -70.80327 | 1572 ft | 136 kts | 177° |
| 2026-05-06 14:53 | -33.39227 | -70.80267 | 1702 ft | 183 kts | 178° |
| 2026-05-06 14:54 | -33.40484 | -70.80205 | 2409 ft | 186 kts | 178° |
| 2026-05-06 14:54 | -33.41736 | -70.80139 | 3344 ft | 182 kts | 178° |
| 2026-05-06 14:54 | -33.43000 | -70.80063 | 4124 ft | 187 kts | 178° |
| 2026-05-06 14:54 | -33.44294 | -70.79990 | 4862 ft | 189 kts | 179° |
| 2026-05-06 14:55 | -33.45615 | -70.79918 | 5479 ft | 194 kts | 180° |
| 2026-05-06 14:55 | -33.46981 | -70.79845 | 6083 ft | 199 kts | 180° |
| 2026-05-06 14:55 | -33.48409 | -70.79771 | 6548 ft | 213 kts | 180° |
| 2026-05-06 14:55 | -33.49951 | -70.79688 | 6920 ft | 233 kts | 180° |
| 2026-05-06 14:56 | -33.51635 | -70.79598 | 7432 ft | 251 kts | 181° |
| 2026-05-06 14:56 | -33.53453 | -70.79501 | 7899 ft | 270 kts | 180° |
| 2026-05-06 14:56 | -33.55384 | -70.79291 | 8374 ft | 290 kts | 176° |
| 2026-05-06 14:56 | -33.57464 | -70.79015 | 8928 ft | 308 kts | 176° |
| 2026-05-06 14:57 | -33.59605 | -70.78742 | 9703 ft | 315 kts | 177° |
| 2026-05-06 14:57 | -33.61805 | -70.78471 | 10453 ft | 322 kts | 178° |
| 2026-05-06 14:57 | -33.64080 | -70.78197 | 10938 ft | 340 kts | 178° |
| 2026-05-06 14:57 | -33.66486 | -70.77908 | 11369 ft | 358 kts | 178° |
| 2026-05-06 14:58 | -33.69034 | -70.77601 | 11893 ft | 374 kts | 178° |
| 2026-05-06 14:58 | -33.71658 | -70.77284 | 12374 ft | 389 kts | 178° |
| 2026-05-06 14:58 | -33.74411 | -70.76949 | 12867 ft | 404 kts | 177° |
| 2026-05-06 14:58 | -33.77215 | -70.76257 | 13549 ft | 420 kts | 166° |
| 2026-05-06 14:59 | -33.79934 | -70.74914 | 14444 ft | 423 kts | 155° |
| 2026-05-06 14:59 | -33.82428 | -70.73003 | 15372 ft | 429 kts | 144° |
| 2026-05-06 14:59 | -33.84645 | -70.70565 | 16000 ft | 439 kts | 133° |
| 2026-05-06 14:59 | -33.86474 | -70.67641 | 16631 ft | 447 kts | 121° |
| 2026-05-06 15:00 | -33.87864 | -70.64276 | 17352 ft | 451 kts | 110° |
| 2026-05-06 15:00 | -33.89028 | -70.60762 | 18167 ft | 454 kts | 110° |
| 2026-05-06 15:00 | -33.90214 | -70.57256 | 18873 ft | 460 kts | 111° |
| 2026-05-06 15:00 | -33.91468 | -70.53680 | 19584 ft | 466 kts | 112° |
| 2026-05-06 15:01 | -33.92751 | -70.50107 | 20218 ft | 472 kts | 112° |
| 2026-05-06 15:01 | -33.94082 | -70.46465 | 20861 ft | 479 kts | 113° |
| 2026-05-06 15:01 | -33.95431 | -70.42811 | 21509 ft | 484 kts | 114° |
| 2026-05-06 15:01 | -33.96821 | -70.39076 | 22126 ft | 490 kts | 113° |
| 2026-05-06 15:02 | -33.98221 | -70.35329 | 22672 ft | 498 kts | 114° |
| 2026-05-06 15:02 | -33.99663 | -70.31483 | 23214 ft | 505 kts | 114° |
| 2026-05-06 15:02 | -34.01105 | -70.27645 | 23843 ft | 509 kts | 113° |
| 2026-05-06 15:02 | -34.02579 | -70.23724 | 24383 ft | 515 kts | 114° |
| 2026-05-06 15:03 | -34.04048 | -70.19817 | 24779 ft | 524 kts | 114° |
| 2026-05-06 15:03 | -34.05558 | -70.15801 | 25240 ft | 530 kts | 114° |
| 2026-05-06 15:03 | -34.07090 | -70.11725 | 25781 ft | 534 kts | 114° |
| 2026-05-06 15:03 | -34.08631 | -70.07625 | 26242 ft | 540 kts | 114° |
| 2026-05-06 15:04 | -34.10182 | -70.03490 | 26598 ft | 548 kts | 113° |
| 2026-05-06 15:04 | -34.11755 | -69.99294 | 26972 ft | 554 kts | 114° |
| 2026-05-06 15:04 | -34.13341 | -69.95054 | 27414 ft | 559 kts | 115° |
| 2026-05-06 15:04 | -34.14954 | -69.90743 | 27865 ft | 563 kts | 114° |
| 2026-05-06 15:05 | -34.16559 | -69.86449 | 28310 ft | 566 kts | 115° |
| 2026-05-06 15:05 | -34.17990 | -69.82015 | 28649 ft | 572 kts | 105° |
| 2026-05-06 15:05 | -34.18952 | -69.77357 | 28905 ft | 578 kts | 98° |
| 2026-05-06 15:05 | -34.19640 | -69.72585 | 29333 ft | 581 kts | 96° |
| 2026-05-06 15:06 | -34.20296 | -69.67790 | 29834 ft | 583 kts | 96° |
| 2026-05-06 15:06 | -34.20957 | -69.62947 | 30450 ft | 581 kts | 96° |
| 2026-05-06 15:06 | -34.21608 | -69.58159 | 30901 ft | 583 kts | 96° |
| 2026-05-06 15:06 | -34.22263 | -69.53336 | 31289 ft | 587 kts | 97° |
| 2026-05-06 15:07 | -34.22921 | -69.48483 | 31624 ft | 593 kts | 98° |
| 2026-05-06 15:07 | -34.23586 | -69.43585 | 32145 ft | 592 kts | 97° |
| 2026-05-06 15:07 | -34.24251 | -69.38670 | 32820 ft | 588 kts | 98° |
| 2026-05-06 15:07 | -34.24910 | -69.33790 | 33249 ft | 590 kts | 97° |
| 2026-05-06 15:08 | -34.25566 | -69.28907 | 33474 ft | 596 kts | 97° |
| 2026-05-06 15:08 | -34.26228 | -69.23970 | 33798 ft | 599 kts | 98° |
| 2026-05-06 15:08 | -34.26894 | -69.18998 | 34202 ft | 598 kts | 98° |
| 2026-05-06 15:08 | -34.27556 | -69.14048 | 34714 ft | 592 kts | 97° |
| 2026-05-06 15:09 | -34.28215 | -69.09103 | 35366 ft | 583 kts | 97° |
| 2026-05-06 15:09 | -34.28846 | -69.04352 | 36246 ft | 571 kts | 97° |
| 2026-05-06 15:09 | -34.29478 | -68.99552 | 36925 ft | 564 kts | 98° |
| 2026-05-06 15:09 | -34.30093 | -68.94853 | 37438 ft | 560 kts | 97° |
| 2026-05-06 15:10 | -34.30691 | -68.90258 | 37870 ft | 557 kts | 97° |
| 2026-05-06 15:10 | -34.31292 | -68.85636 | 38423 ft | 554 kts | 97° |
| 2026-05-06 15:10 | -34.31891 | -68.81014 | 38903 ft | 552 kts | 97° |
| 2026-05-06 15:11 | -34.33067 | -68.71891 | 38912 ft | 552 kts | 97° |
| 2026-05-06 15:11 | -34.34235 | -68.62794 | 38895 ft | 549 kts | 97° |
| 2026-05-06 15:12 | -34.35402 | -68.53636 | 38889 ft | 550 kts | 97° |
| 2026-05-06 15:12 | -34.36577 | -68.44372 | 38862 ft | 550 kts | 96° |
| 2026-05-06 15:13 | -34.37724 | -68.35266 | 38833 ft | 547 kts | 97° |
| 2026-05-06 15:13 | -34.38866 | -68.26148 | 38855 ft | 548 kts | 95° |
| 2026-05-06 15:14 | -34.39997 | -68.17056 | 38838 ft | 548 kts | 95° |
| 2026-05-06 15:14 | -34.41127 | -68.07923 | 38813 ft | 549 kts | 96° |
| 2026-05-06 15:15 | -34.42245 | -67.98824 | 38806 ft | 546 kts | 96° |
| 2026-05-06 15:15 | -34.43362 | -67.89686 | 38769 ft | 544 kts | 96° |
| 2026-05-06 15:16 | -34.44471 | -67.80545 | 38803 ft | 548 kts | 96° |
| 2026-05-06 15:16 | -34.45544 | -67.71420 | 38789 ft | 547 kts | 96° |
| 2026-05-06 15:17 | -34.46598 | -67.62323 | 38809 ft | 545 kts | 95° |
| 2026-05-06 15:17 | -34.47641 | -67.53256 | 38801 ft | 549 kts | 95° |
| 2026-05-06 15:18 | -34.48694 | -67.44064 | 38797 ft | 546 kts | 95° |
| 2026-05-06 15:18 | -34.49740 | -67.34862 | 38783 ft | 549 kts | 94° |
| 2026-05-06 15:19 | -34.50763 | -67.25809 | 38777 ft | 544 kts | 94° |
| 2026-05-06 15:19 | -34.51782 | -67.16722 | 38754 ft | 547 kts | 95° |
| 2026-05-06 15:20 | -34.52803 | -67.07555 | 38776 ft | 548 kts | 94° |
| 2026-05-06 15:20 | -34.53813 | -66.98433 | 38777 ft | 547 kts | 94° |
| 2026-05-06 15:21 | -34.54813 | -66.89326 | 38787 ft | 550 kts | 94° |
| 2026-05-06 15:21 | -34.55820 | -66.80106 | 38784 ft | 549 kts | 94° |
| 2026-05-06 15:22 | -34.56805 | -66.71009 | 38798 ft | 549 kts | 94° |
| 2026-05-06 15:22 | -34.57791 | -66.61838 | 38815 ft | 551 kts | 94° |
| 2026-05-06 15:23 | -34.58775 | -66.52634 | 38802 ft | 550 kts | 94° |
| 2026-05-06 15:23 | -34.59746 | -66.43471 | 38810 ft | 550 kts | 94° |
| 2026-05-06 15:24 | -34.60724 | -66.34168 | 38791 ft | 553 kts | 94° |
| 2026-05-06 15:24 | -34.61689 | -66.24941 | 38784 ft | 551 kts | 94° |
| 2026-05-06 15:25 | -34.62648 | -66.15690 | 38776 ft | 554 kts | 92° |
| 2026-05-06 15:25 | -34.63599 | -66.06442 | 38805 ft | 553 kts | 93° |
| 2026-05-06 15:26 | -34.64548 | -65.97153 | 38775 ft | 555 kts | 93° |
| 2026-05-06 15:26 | -34.65485 | -65.87900 | 38785 ft | 556 kts | 92° |
| 2026-05-06 15:27 | -34.66427 | -65.78545 | 38793 ft | 556 kts | 92° |
| 2026-05-06 15:27 | -34.67355 | -65.69239 | 38785 ft | 556 kts | 93° |
| 2026-05-06 15:28 | -34.68277 | -65.59915 | 38786 ft | 558 kts | 92° |
| 2026-05-06 15:28 | -34.69197 | -65.50560 | 38787 ft | 557 kts | 92° |
| 2026-05-06 15:29 | -34.70103 | -65.41262 | 38788 ft | 558 kts | 92° |
| 2026-05-06 15:29 | -34.71006 | -65.31903 | 38767 ft | 559 kts | 92° |
| 2026-05-06 15:30 | -34.71902 | -65.22538 | 38774 ft | 561 kts | 92° |
| 2026-05-06 15:30 | -34.72792 | -65.13159 | 38776 ft | 561 kts | 92° |
| 2026-05-06 15:31 | -34.73680 | -65.03740 | 38780 ft | 562 kts | 92° |
| 2026-05-06 15:31 | -34.74558 | -64.94333 | 38776 ft | 561 kts | 92° |
| 2026-05-06 15:32 | -34.75863 | -64.80207 | 38776 ft | 561 kts | 92° |
| 2026-05-06 15:32 | -34.76724 | -64.70782 | 38774 ft | 562 kts | 92° |
| 2026-05-06 15:33 | -34.77581 | -64.61353 | 38770 ft | 561 kts | 92° |
| 2026-05-06 15:33 | -34.78444 | -64.51913 | 38762 ft | 562 kts | 92° |
| 2026-05-06 15:34 | -34.79291 | -64.42566 | 38774 ft | 561 kts | 92° |
| 2026-05-06 15:34 | -34.80145 | -64.33065 | 38769 ft | 561 kts | 91° |
| 2026-05-06 15:35 | -34.80983 | -64.23637 | 38758 ft | 563 kts | 92° |
| 2026-05-06 15:35 | -34.81821 | -64.14140 | 38759 ft | 564 kts | 92° |
| 2026-05-06 15:36 | -34.82644 | -64.04719 | 38758 ft | 562 kts | 92° |
| 2026-05-06 15:36 | -34.83460 | -63.95302 | 38761 ft | 562 kts | 92° |
| 2026-05-06 15:37 | -34.84271 | -63.85820 | 38772 ft | 566 kts | 91° |
| 2026-05-06 15:37 | -34.85072 | -63.76379 | 38765 ft | 560 kts | 92° |
| 2026-05-06 15:38 | -34.85858 | -63.67011 | 38775 ft | 562 kts | 92° |
| 2026-05-06 15:38 | -34.86646 | -63.57545 | 38771 ft | 561 kts | 92° |
| 2026-05-06 15:39 | -34.87427 | -63.48121 | 38779 ft | 562 kts | 92° |
| 2026-05-06 15:39 | -34.88205 | -63.38701 | 38763 ft | 563 kts | 92° |
| 2026-05-06 15:40 | -34.88982 | -63.29191 | 38758 ft | 563 kts | 92° |
| 2026-05-06 15:40 | -34.89746 | -63.19764 | 38764 ft | 562 kts | 91° |
| 2026-05-06 15:41 | -34.90505 | -63.10309 | 38754 ft | 562 kts | 91° |
| 2026-05-06 15:41 | -34.91259 | -63.00805 | 38756 ft | 563 kts | 91° |
| 2026-05-06 15:42 | -34.92002 | -62.91349 | 38743 ft | 563 kts | 91° |
| 2026-05-06 15:42 | -34.92736 | -62.81912 | 38748 ft | 560 kts | 92° |
| 2026-05-06 15:43 | -34.93465 | -62.72442 | 38754 ft | 564 kts | 92° |
| 2026-05-06 15:43 | -34.94186 | -62.62971 | 38760 ft | 561 kts | 91° |
| 2026-05-06 15:44 | -34.94893 | -62.53487 | 38756 ft | 563 kts | 92° |
| 2026-05-06 15:44 | -34.95591 | -62.44029 | 38770 ft | 564 kts | 91° |
| 2026-05-06 15:45 | -34.96285 | -62.34531 | 38786 ft | 562 kts | 91° |
| 2026-05-06 15:45 | -34.96856 | -62.25059 | 38756 ft | 562 kts | 88° |
| 2026-05-06 15:46 | -34.97140 | -62.15570 | 38754 ft | 562 kts | 88° |
| 2026-05-06 15:46 | -34.97427 | -62.06050 | 38768 ft | 561 kts | 88° |
| 2026-05-06 15:47 | -34.97713 | -61.96590 | 38760 ft | 561 kts | 88° |
| 2026-05-06 15:47 | -34.97998 | -61.87101 | 38768 ft | 565 kts | 88° |
| 2026-05-06 15:48 | -34.98282 | -61.77605 | 38774 ft | 561 kts | 89° |
| 2026-05-06 15:48 | -34.98558 | -61.68119 | 38768 ft | 562 kts | 88° |
| 2026-05-06 15:49 | -34.98828 | -61.58632 | 38776 ft | 563 kts | 88° |
| 2026-05-06 15:49 | -34.99085 | -61.49106 | 38778 ft | 562 kts | 89° |
| 2026-05-06 15:50 | -34.99332 | -61.39579 | 38789 ft | 564 kts | 88° |
| 2026-05-06 15:50 | -34.99573 | -61.30056 | 38760 ft | 563 kts | 88° |
| 2026-05-06 15:51 | -34.99804 | -61.20567 | 38761 ft | 563 kts | 88° |
| 2026-05-06 15:51 | -35.00030 | -61.11065 | 38762 ft | 562 kts | 88° |
| 2026-05-06 15:52 | -35.00248 | -61.01560 | 38791 ft | 564 kts | 88° |
| 2026-05-06 15:52 | -35.00458 | -60.92056 | 38795 ft | 562 kts | 88° |
| 2026-05-06 15:53 | -35.00663 | -60.82536 | 38448 ft | 557 kts | 88° |
| 2026-05-06 15:53 | -35.00760 | -60.77869 | 37271 ft | 565 kts | 88° |
| 2026-05-06 15:53 | -35.00856 | -60.73046 | 35944 ft | 573 kts | 88° |
| 2026-05-06 15:54 | -35.00952 | -60.68223 | 34850 ft | 576 kts | 88° |
| 2026-05-06 15:54 | -35.01049 | -60.63358 | 33805 ft | 577 kts | 88° |
| 2026-05-06 15:54 | -35.01143 | -60.58469 | 32764 ft | 577 kts | 88° |
| 2026-05-06 15:54 | -35.01236 | -60.53585 | 31650 ft | 579 kts | 88° |
| 2026-05-06 15:55 | -35.01326 | -60.48729 | 30529 ft | 579 kts | 88° |
| 2026-05-06 15:55 | -35.01415 | -60.43837 | 29851 ft | 570 kts | 88° |
| 2026-05-06 15:55 | -35.01501 | -60.39113 | 29484 ft | 558 kts | 88° |
| 2026-05-06 15:55 | -35.01583 | -60.34409 | 28687 ft | 556 kts | 87° |
| 2026-05-06 15:56 | -35.01662 | -60.29787 | 27744 ft | 542 kts | 87° |
| 2026-05-06 15:56 | -35.01739 | -60.25297 | 27121 ft | 521 kts | 87° |
| 2026-05-06 15:56 | -35.01811 | -60.20951 | 26542 ft | 501 kts | 87° |
| 2026-05-06 15:56 | -35.01878 | -60.16783 | 25916 ft | 484 kts | 87° |
| 2026-05-06 15:57 | -35.01939 | -60.12788 | 25304 ft | 479 kts | 87° |
| 2026-05-06 15:57 | -35.01996 | -60.08658 | 24757 ft | 491 kts | 87° |
| 2026-05-06 15:57 | -35.02055 | -60.04466 | 24016 ft | 493 kts | 87° |
| 2026-05-06 15:57 | -35.02114 | -60.00316 | 23311 ft | 490 kts | 87° |
| 2026-05-06 15:58 | -35.02172 | -59.96216 | 22630 ft | 487 kts | 87° |
| 2026-05-06 15:58 | -35.02228 | -59.92104 | 21959 ft | 483 kts | 87° |
| 2026-05-06 15:58 | -35.02283 | -59.88050 | 21290 ft | 479 kts | 87° |
| 2026-05-06 15:58 | -35.02336 | -59.84003 | 20612 ft | 475 kts | 87° |
| 2026-05-06 15:59 | -35.02387 | -59.80033 | 19940 ft | 472 kts | 88° |
| 2026-05-06 15:59 | -35.02436 | -59.76027 | 19260 ft | 468 kts | 87° |
| 2026-05-06 15:59 | -35.02483 | -59.72140 | 18601 ft | 464 kts | 88° |
| 2026-05-06 15:59 | -35.02529 | -59.68187 | 17909 ft | 461 kts | 88° |
| 2026-05-06 16:00 | -35.02542 | -59.64360 | 17227 ft | 455 kts | 84° |
| 2026-05-06 16:00 | -35.02163 | -59.60561 | 16569 ft | 446 kts | 75° |
| 2026-05-06 16:00 | -35.01539 | -59.56900 | 16060 ft | 437 kts | 73° |
| 2026-05-06 16:00 | -35.00902 | -59.53312 | 15220 ft | 439 kts | 73° |
| 2026-05-06 16:01 | -35.00259 | -59.49713 | 14493 ft | 426 kts | 73° |
| 2026-05-06 16:01 | -34.99646 | -59.46292 | 13846 ft | 408 kts | 73° |
| 2026-05-06 16:01 | -34.99048 | -59.42960 | 13248 ft | 391 kts | 73° |
| 2026-05-06 16:01 | -34.98479 | -59.39817 | 12696 ft | 377 kts | 73° |
| 2026-05-06 16:02 | -34.97915 | -59.36713 | 12135 ft | 380 kts | 73° |
| 2026-05-06 16:02 | -34.97343 | -59.33591 | 11531 ft | 379 kts | 72° |
| 2026-05-06 16:02 | -34.96777 | -59.30482 | 10936 ft | 375 kts | 72° |
| 2026-05-06 16:02 | -34.96213 | -59.27397 | 10401 ft | 366 kts | 72° |
| 2026-05-06 16:03 | -34.95683 | -59.24479 | 10279 ft | 338 kts | 72° |
| 2026-05-06 16:03 | -34.95193 | -59.21788 | 10204 ft | 313 kts | 71° |
| 2026-05-06 16:03 | -34.94736 | -59.19300 | 10158 ft | 295 kts | 71° |
| 2026-05-06 16:03 | -34.94288 | -59.16883 | 10000 ft | 289 kts | 71° |
| 2026-05-06 16:04 | -34.93836 | -59.14465 | 9855 ft | 301 kts | 71° |
| 2026-05-06 16:04 | -34.93370 | -59.11948 | 9512 ft | 306 kts | 72° |
| 2026-05-06 16:04 | -34.92900 | -59.09400 | 9089 ft | 308 kts | 71° |
| 2026-05-06 16:04 | -34.92436 | -59.06876 | 8701 ft | 308 kts | 71° |
| 2026-05-06 16:05 | -34.91970 | -59.04354 | 8337 ft | 307 kts | 71° |
| 2026-05-06 16:05 | -34.91502 | -59.01819 | 7973 ft | 305 kts | 71° |
| 2026-05-06 16:05 | -34.90830 | -58.99411 | 7619 ft | 292 kts | 53° |
| 2026-05-06 16:05 | -34.89564 | -58.97666 | 7330 ft | 265 kts | 32° |
| 2026-05-06 16:06 | -34.88067 | -58.96486 | 7091 ft | 247 kts | 24° |
| 2026-05-06 16:06 | -34.86571 | -58.95536 | 6932 ft | 243 kts | 21° |
| 2026-05-06 16:06 | -34.85067 | -58.94676 | 6928 ft | 230 kts | 20° |
| 2026-05-06 16:06 | -34.83646 | -58.93893 | 6925 ft | 218 kts | 19° |
| 2026-05-06 16:07 | -34.82300 | -58.93159 | 6882 ft | 208 kts | 19° |
| 2026-05-06 16:07 | -34.80985 | -58.92445 | 6653 ft | 209 kts | 18° |
| 2026-05-06 16:07 | -34.79659 | -58.91725 | 6414 ft | 208 kts | 19° |
| 2026-05-06 16:07 | -34.78355 | -58.90929 | 6201 ft | 210 kts | 29° |
| 2026-05-06 16:08 | -34.77322 | -58.89666 | 6040 ft | 217 kts | 49° |
| 2026-05-06 16:08 | -34.76709 | -58.87941 | 5797 ft | 229 kts | 71° |
| 2026-05-06 16:08 | -34.76680 | -58.85971 | 5560 ft | 240 kts | 91° |
| 2026-05-06 16:08 | -34.76954 | -58.83981 | 5323 ft | 241 kts | 92° |
| 2026-05-06 16:09 | -34.77181 | -58.81954 | 4978 ft | 237 kts | 91° |
| 2026-05-06 16:09 | -34.77433 | -58.79987 | 4541 ft | 237 kts | 94° |
| 2026-05-06 16:09 | -34.77744 | -58.78025 | 4114 ft | 236 kts | 95° |
| 2026-05-06 16:09 | -34.78085 | -58.76097 | 3691 ft | 235 kts | 96° |
| 2026-05-06 16:10 | -34.78439 | -58.74258 | 3455 ft | 209 kts | 96° |
| 2026-05-06 16:10 | -34.78762 | -58.72606 | 3052 ft | 198 kts | 96° |
| 2026-05-06 16:10 | -34.79057 | -58.71020 | 2716 ft | 185 kts | 95° |
| 2026-05-06 16:10 | -34.79324 | -58.69585 | 2453 ft | 158 kts | 94° |
| 2026-05-06 16:11 | -34.79548 | -58.68353 | 2282 ft | 145 kts | 94° |
| 2026-05-06 16:11 | -34.79760 | -58.67182 | 2073 ft | 137 kts | 94° |
| 2026-05-06 16:11 | -34.79961 | -58.66068 | 1887 ft | 135 kts | 94° |
| 2026-05-06 16:11 | -34.80162 | -58.64959 | 1692 ft | 133 kts | 94° |
| 2026-05-06 16:12 | -34.80361 | -58.63866 | 1507 ft | 131 kts | 94° |
| 2026-05-06 16:12 | -34.80555 | -58.62793 | 1322 ft | 129 kts | 95° |
| 2026-05-06 16:12 | -34.80750 | -58.61719 | 1127 ft | 131 kts | 96° |
| 2026-05-06 16:12 | -34.80941 | -58.60634 | 944 ft | 130 kts | 97° |
| 2026-05-06 16:13 | -34.81150 | -58.59567 | 777 ft | 130 kts | 98° |
| 2026-05-06 16:13 | -34.81334 | -58.58495 | 606 ft | 129 kts | 97° |
| 2026-05-06 16:13 | -34.81524 | -58.57421 | 444 ft | 128 kts | 100° |
| 2026-05-06 16:13 | -34.81721 | -58.56361 | 269 ft | 129 kts | 100° |
| 2026-05-06 16:14 | -34.81914 | -58.55296 | 102 ft | 128 kts | 101° |
| 2026-05-06 16:14 | -34.82091 | -58.54301 | 77 ft | 106 kts | 102° |
| 2026-05-06 16:14 | -34.82144 | -58.53972 | 77 ft | 16 kts | 77° |
| 2026-05-06 16:14 | -34.82079 | -58.53848 | 79 ft | 17 kts | 44° |
| 2026-05-06 16:15 | -34.81990 | -58.53738 | 80 ft | 18 kts | 45° |
| 2026-05-06 16:15 | -34.81907 | -58.53652 | 82 ft | 13 kts | 13° |
| 2026-05-06 16:15 | -34.81817 | -58.53680 | 84 ft | 14 kts | 335° |
| 2026-05-06 16:15 | -34.81725 | -58.53731 | 87 ft | 14 kts | 337° |
| 2026-05-06 16:16 | -34.81634 | -58.53790 | 90 ft | 15 kts | 321° |
| 2026-05-06 16:16 | -34.81537 | -58.53843 | 92 ft | 15 kts | 346° |
| 2026-05-06 16:16 | -34.81501 | -58.53854 | 93 ft | 0 kts | 348° |